sensor_id;sensor_type;location;lat;lon;timestamp;P1;durP1;ratioP1;P2;durP2;ratioP2
53036;SDS011;38924;52.134;4.666;2023-06-01T00:01:23;16.10;;;11.20;;
53036;SDS011;38924;52.134;4.666;2023-06-01T00:03:48;18.90;;;10.98;;
53036;SDS011;38924;52.134;4.666;2023-06-01T00:06:14;15.52;;;10.70;;
53036;SDS011;38924;52.134;4.666;2023-06-01T00:08:43;14.15;;;10.82;;
53036;SDS011;38924;52.134;4.666;2023-06-01T00:11:08;19.33;;;10.35;;
53036;SDS011;38924;52.134;4.666;2023-06-01T00:13:34;17.80;;;10.60;;
53036;SDS011;38924;52.134;4.666;2023-06-01T00:16:00;17.35;;;10.57;;
53036;SDS011;38924;52.134;4.666;2023-06-01T00:18:35;14.15;;;10.52;;
53036;SDS011;38924;52.134;4.666;2023-06-01T00:21:03;12.10;;;10.30;;
53036;SDS011;38924;52.134;4.666;2023-06-01T00:23:29;17.38;;;9.77;;
53036;SDS011;38924;52.134;4.666;2023-06-01T00:25:55;14.60;;;10.80;;
53036;SDS011;38924;52.134;4.666;2023-06-01T00:28:21;15.38;;;10.45;;
53036;SDS011;38924;52.134;4.666;2023-06-01T00:30:46;16.42;;;10.13;;
53036;SDS011;38924;52.134;4.666;2023-06-01T00:33:12;17.25;;;10.38;;
53036;SDS011;38924;52.134;4.666;2023-06-01T00:35:38;15.23;;;9.50;;
53036;SDS011;38924;52.134;4.666;2023-06-01T00:38:03;14.23;;;9.98;;
53036;SDS011;38924;52.134;4.666;2023-06-01T00:40:29;22.92;;;11.07;;
53036;SDS011;38924;52.134;4.666;2023-06-01T00:42:55;19.33;;;10.25;;
53036;SDS011;38924;52.134;4.666;2023-06-01T00:45:21;17.60;;;10.68;;
53036;SDS011;38924;52.134;4.666;2023-06-01T00:47:46;17.55;;;10.52;;
53036;SDS011;38924;52.134;4.666;2023-06-01T00:50:13;17.40;;;10.25;;
53036;SDS011;38924;52.134;4.666;2023-06-01T00:52:39;18.67;;;11.00;;
53036;SDS011;38924;52.134;4.666;2023-06-01T00:55:05;26.45;;;10.93;;
53036;SDS011;38924;52.134;4.666;2023-06-01T00:57:32;17.88;;;11.43;;
53036;SDS011;38924;52.134;4.666;2023-06-01T00:59:58;25.15;;;9.80;;
53036;SDS011;38924;52.134;4.666;2023-06-01T01:02:23;15.73;;;10.85;;
53036;SDS011;38924;52.134;4.666;2023-06-01T01:04:49;16.52;;;10.90;;
53036;SDS011;38924;52.134;4.666;2023-06-01T01:07:21;21.73;;;11.65;;
53036;SDS011;38924;52.134;4.666;2023-06-01T01:10:04;15.02;;;10.85;;
53036;SDS011;38924;52.134;4.666;2023-06-01T01:15:24;13.88;;;10.55;;
53036;SDS011;38924;52.134;4.666;2023-06-01T01:17:54;15.25;;;9.88;;
53036;SDS011;38924;52.134;4.666;2023-06-01T01:20:24;20.90;;;10.05;;
53036;SDS011;38924;52.134;4.666;2023-06-01T01:22:57;22.33;;;11.80;;
53036;SDS011;38924;52.134;4.666;2023-06-01T01:30:27;11.63;;;8.68;;
53036;SDS011;38924;52.134;4.666;2023-06-01T01:32:54;17.60;;;9.02;;
53036;SDS011;38924;52.134;4.666;2023-06-01T01:35:21;15.57;;;9.10;;
53036;SDS011;38924;52.134;4.666;2023-06-01T01:37:51;14.70;;;9.70;;
53036;SDS011;38924;52.134;4.666;2023-06-01T01:40:17;21.52;;;10.57;;
53036;SDS011;38924;52.134;4.666;2023-06-01T01:42:43;12.55;;;9.38;;
53036;SDS011;38924;52.134;4.666;2023-06-01T01:45:09;16.50;;;9.90;;
53036;SDS011;38924;52.134;4.666;2023-06-01T01:47:36;18.52;;;10.73;;
53036;SDS011;38924;52.134;4.666;2023-06-01T01:50:08;14.73;;;9.32;;
53036;SDS011;38924;52.134;4.666;2023-06-01T01:52:35;17.45;;;9.38;;
53036;SDS011;38924;52.134;4.666;2023-06-01T01:55:03;17.13;;;9.18;;
53036;SDS011;38924;52.134;4.666;2023-06-01T01:57:30;16.20;;;9.90;;
53036;SDS011;38924;52.134;4.666;2023-06-01T01:59:59;15.60;;;9.88;;
53036;SDS011;38924;52.134;4.666;2023-06-01T02:02:26;14.73;;;8.63;;
53036;SDS011;38924;52.134;4.666;2023-06-01T02:04:52;15.10;;;10.30;;
53036;SDS011;38924;52.134;4.666;2023-06-01T02:07:21;16.88;;;9.50;;
53036;SDS011;38924;52.134;4.666;2023-06-01T02:09:47;20.42;;;10.35;;
53036;SDS011;38924;52.134;4.666;2023-06-01T02:12:13;13.30;;;9.68;;
53036;SDS011;38924;52.134;4.666;2023-06-01T02:14:38;29.15;;;12.50;;
53036;SDS011;38924;52.134;4.666;2023-06-01T02:17:04;13.85;;;10.25;;
53036;SDS011;38924;52.134;4.666;2023-06-01T02:19:31;17.13;;;9.45;;
53036;SDS011;38924;52.134;4.666;2023-06-01T02:21:56;14.95;;;10.15;;
53036;SDS011;38924;52.134;4.666;2023-06-01T02:24:22;15.93;;;10.98;;
53036;SDS011;38924;52.134;4.666;2023-06-01T02:26:48;14.63;;;9.98;;
53036;SDS011;38924;52.134;4.666;2023-06-01T02:29:17;18.20;;;10.52;;
53036;SDS011;38924;52.134;4.666;2023-06-01T02:31:45;15.07;;;9.75;;
53036;SDS011;38924;52.134;4.666;2023-06-01T02:34:11;25.13;;;10.57;;
53036;SDS011;38924;52.134;4.666;2023-06-01T02:36:43;16.20;;;10.68;;
53036;SDS011;38924;52.134;4.666;2023-06-01T02:39:08;19.67;;;10.40;;
53036;SDS011;38924;52.134;4.666;2023-06-01T02:41:34;18.65;;;11.68;;
53036;SDS011;38924;52.134;4.666;2023-06-01T02:44:00;18.42;;;9.98;;
53036;SDS011;38924;52.134;4.666;2023-06-01T02:46:27;21.23;;;10.70;;
53036;SDS011;38924;52.134;4.666;2023-06-01T02:48:55;19.35;;;10.32;;
53036;SDS011;38924;52.134;4.666;2023-06-01T02:51:20;18.77;;;9.93;;
53036;SDS011;38924;52.134;4.666;2023-06-01T02:53:50;14.90;;;8.40;;
53036;SDS011;38924;52.134;4.666;2023-06-01T02:56:16;20.85;;;9.57;;
53036;SDS011;38924;52.134;4.666;2023-06-01T02:58:49;19.88;;;9.48;;
53036;SDS011;38924;52.134;4.666;2023-06-01T03:03:50;18.98;;;9.93;;
53036;SDS011;38924;52.134;4.666;2023-06-01T03:06:17;21.42;;;9.88;;
53036;SDS011;38924;52.134;4.666;2023-06-01T03:09:05;14.68;;;8.52;;
53036;SDS011;38924;52.134;4.666;2023-06-01T03:11:48;20.67;;;9.85;;
53036;SDS011;38924;52.134;4.666;2023-06-01T03:14:14;17.23;;;9.55;;
53036;SDS011;38924;52.134;4.666;2023-06-01T03:16:40;17.45;;;10.05;;
53036;SDS011;38924;52.134;4.666;2023-06-01T03:19:15;17.75;;;9.55;;
53036;SDS011;38924;52.134;4.666;2023-06-01T03:21:42;17.52;;;8.60;;
53036;SDS011;38924;52.134;4.666;2023-06-01T03:24:07;23.70;;;9.18;;
53036;SDS011;38924;52.134;4.666;2023-06-01T03:26:33;12.60;;;7.88;;
53036;SDS011;38924;52.134;4.666;2023-06-01T03:28:59;16.83;;;8.57;;
53036;SDS011;38924;52.134;4.666;2023-06-01T03:31:26;17.08;;;8.68;;
53036;SDS011;38924;52.134;4.666;2023-06-01T03:34:01;14.50;;;8.93;;
53036;SDS011;38924;52.134;4.666;2023-06-01T03:36:27;14.10;;;8.68;;
53036;SDS011;38924;52.134;4.666;2023-06-01T03:38:53;14.98;;;8.55;;
53036;SDS011;38924;52.134;4.666;2023-06-01T03:41:21;19.27;;;8.63;;
53036;SDS011;38924;52.134;4.666;2023-06-01T03:43:48;19.35;;;9.35;;
53036;SDS011;38924;52.134;4.666;2023-06-01T03:46:13;11.45;;;8.65;;
53036;SDS011;38924;52.134;4.666;2023-06-01T03:48:39;16.40;;;9.90;;
53036;SDS011;38924;52.134;4.666;2023-06-01T03:51:06;16.70;;;9.48;;
53036;SDS011;38924;52.134;4.666;2023-06-01T03:53:31;21.92;;;13.20;;
53036;SDS011;38924;52.134;4.666;2023-06-01T03:55:57;19.58;;;11.30;;
53036;SDS011;38924;52.134;4.666;2023-06-01T03:58:29;16.23;;;9.88;;
53036;SDS011;38924;52.134;4.666;2023-06-01T04:00:55;16.67;;;9.10;;
53036;SDS011;38924;52.134;4.666;2023-06-01T04:03:23;16.17;;;8.80;;
53036;SDS011;38924;52.134;4.666;2023-06-01T04:05:49;16.38;;;10.43;;
53036;SDS011;38924;52.134;4.666;2023-06-01T04:08:19;12.63;;;8.05;;
53036;SDS011;38924;52.134;4.666;2023-06-01T04:10:46;20.42;;;10.27;;
53036;SDS011;38924;52.134;4.666;2023-06-01T04:13:12;16.98;;;9.32;;
53036;SDS011;38924;52.134;4.666;2023-06-01T04:15:38;17.27;;;9.98;;
53036;SDS011;38924;52.134;4.666;2023-06-01T04:18:04;19.02;;;11.30;;
53036;SDS011;38924;52.134;4.666;2023-06-01T04:20:46;16.95;;;10.43;;
53036;SDS011;38924;52.134;4.666;2023-06-01T04:23:13;14.55;;;10.48;;
53036;SDS011;38924;52.134;4.666;2023-06-01T04:25:39;15.23;;;9.23;;
53036;SDS011;38924;52.134;4.666;2023-06-01T04:28:06;15.95;;;10.48;;
53036;SDS011;38924;52.134;4.666;2023-06-01T04:30:32;17.27;;;9.85;;
53036;SDS011;38924;52.134;4.666;2023-06-01T04:32:58;19.35;;;10.82;;
53036;SDS011;38924;52.134;4.666;2023-06-01T04:35:26;13.88;;;9.60;;
53036;SDS011;38924;52.134;4.666;2023-06-01T04:37:51;30.65;;;20.95;;
53036;SDS011;38924;52.134;4.666;2023-06-01T04:40:17;22.27;;;11.38;;
53036;SDS011;38924;52.134;4.666;2023-06-01T04:42:43;19.27;;;12.02;;
53036;SDS011;38924;52.134;4.666;2023-06-01T04:45:15;15.02;;;9.65;;
53036;SDS011;38924;52.134;4.666;2023-06-01T04:47:41;18.73;;;9.90;;
53036;SDS011;38924;52.134;4.666;2023-06-01T04:50:15;18.25;;;9.23;;
53036;SDS011;38924;52.134;4.666;2023-06-01T04:52:43;17.52;;;10.75;;
53036;SDS011;38924;52.134;4.666;2023-06-01T04:55:10;24.25;;;10.48;;
53036;SDS011;38924;52.134;4.666;2023-06-01T04:57:38;17.00;;;9.98;;
53036;SDS011;38924;52.134;4.666;2023-06-01T05:00:05;15.90;;;10.85;;
53036;SDS011;38924;52.134;4.666;2023-06-01T05:02:36;17.63;;;10.38;;
53036;SDS011;38924;52.134;4.666;2023-06-01T05:05:03;30.08;;;11.00;;
53036;SDS011;38924;52.134;4.666;2023-06-01T05:07:29;20.52;;;11.13;;
53036;SDS011;38924;52.134;4.666;2023-06-01T05:09:58;22.45;;;10.40;;
53036;SDS011;38924;52.134;4.666;2023-06-01T05:12:30;19.95;;;10.38;;
53036;SDS011;38924;52.134;4.666;2023-06-01T05:14:56;20.33;;;9.68;;
53036;SDS011;38924;52.134;4.666;2023-06-01T05:17:21;16.15;;;10.27;;
53036;SDS011;38924;52.134;4.666;2023-06-01T05:19:47;27.85;;;10.32;;
53036;SDS011;38924;52.134;4.666;2023-06-01T05:22:13;18.45;;;8.52;;
53036;SDS011;38924;52.134;4.666;2023-06-01T05:24:39;19.08;;;9.43;;
53036;SDS011;38924;52.134;4.666;2023-06-01T05:27:05;22.23;;;9.95;;
53036;SDS011;38924;52.134;4.666;2023-06-01T05:29:31;18.13;;;9.73;;
53036;SDS011;38924;52.134;4.666;2023-06-01T05:31:56;17.65;;;9.65;;
53036;SDS011;38924;52.134;4.666;2023-06-01T05:34:31;15.02;;;9.57;;
53036;SDS011;38924;52.134;4.666;2023-06-01T05:36:57;25.98;;;10.45;;
53036;SDS011;38924;52.134;4.666;2023-06-01T05:39:22;19.77;;;10.40;;
53036;SDS011;38924;52.134;4.666;2023-06-01T05:41:53;20.30;;;11.90;;
53036;SDS011;38924;52.134;4.666;2023-06-01T05:44:19;20.40;;;10.23;;
53036;SDS011;38924;52.134;4.666;2023-06-01T05:46:45;14.27;;;9.60;;
53036;SDS011;38924;52.134;4.666;2023-06-01T05:49:11;23.17;;;11.35;;
53036;SDS011;38924;52.134;4.666;2023-06-01T05:51:37;18.83;;;11.18;;
53036;SDS011;38924;52.134;4.666;2023-06-01T05:54:04;22.42;;;11.05;;
53036;SDS011;38924;52.134;4.666;2023-06-01T05:56:30;16.80;;;9.48;;
53036;SDS011;38924;52.134;4.666;2023-06-01T05:58:56;14.85;;;10.45;;
53036;SDS011;38924;52.134;4.666;2023-06-01T06:01:22;20.75;;;9.85;;
53036;SDS011;38924;52.134;4.666;2023-06-01T06:03:47;20.58;;;10.38;;
53036;SDS011;38924;52.134;4.666;2023-06-01T06:06:13;19.02;;;10.40;;
53036;SDS011;38924;52.134;4.666;2023-06-01T06:08:39;21.45;;;10.30;;
53036;SDS011;38924;52.134;4.666;2023-06-01T06:11:05;22.30;;;12.15;;
53036;SDS011;38924;52.134;4.666;2023-06-01T06:13:30;42.40;;;13.02;;
53036;SDS011;38924;52.134;4.666;2023-06-01T06:15:56;25.35;;;10.93;;
53036;SDS011;38924;52.134;4.666;2023-06-01T06:18:22;18.40;;;10.55;;
53036;SDS011;38924;52.134;4.666;2023-06-01T06:20:47;18.05;;;10.00;;
53036;SDS011;38924;52.134;4.666;2023-06-01T06:23:13;22.60;;;10.93;;
53036;SDS011;38924;52.134;4.666;2023-06-01T06:25:39;15.82;;;9.38;;
53036;SDS011;38924;52.134;4.666;2023-06-01T06:28:12;25.20;;;9.40;;
53036;SDS011;38924;52.134;4.666;2023-06-01T06:30:38;21.63;;;9.77;;
53036;SDS011;38924;52.134;4.666;2023-06-01T06:33:03;18.25;;;9.10;;
53036;SDS011;38924;52.134;4.666;2023-06-01T06:35:29;17.92;;;10.05;;
53036;SDS011;38924;52.134;4.666;2023-06-01T06:37:55;27.52;;;9.43;;
53036;SDS011;38924;52.134;4.666;2023-06-01T06:40:21;16.70;;;9.52;;
53036;SDS011;38924;52.134;4.666;2023-06-01T06:42:47;21.42;;;9.32;;
53036;SDS011;38924;52.134;4.666;2023-06-01T06:45:13;14.05;;;9.75;;
53036;SDS011;38924;52.134;4.666;2023-06-01T06:47:38;22.95;;;10.88;;
53036;SDS011;38924;52.134;4.666;2023-06-01T06:50:04;15.38;;;8.45;;
53036;SDS011;38924;52.134;4.666;2023-06-01T06:52:30;18.95;;;8.55;;
53036;SDS011;38924;52.134;4.666;2023-06-01T06:54:56;18.38;;;9.15;;
53036;SDS011;38924;52.134;4.666;2023-06-01T06:57:22;21.55;;;9.98;;
53036;SDS011;38924;52.134;4.666;2023-06-01T06:59:47;20.00;;;7.90;;
53036;SDS011;38924;52.134;4.666;2023-06-01T07:02:13;18.13;;;8.45;;
53036;SDS011;38924;52.134;4.666;2023-06-01T07:04:39;12.85;;;8.30;;
53036;SDS011;38924;52.134;4.666;2023-06-01T07:07:05;16.50;;;8.70;;
53036;SDS011;38924;52.134;4.666;2023-06-01T07:09:31;20.45;;;9.32;;
53036;SDS011;38924;52.134;4.666;2023-06-01T07:11:57;15.75;;;9.48;;
53036;SDS011;38924;52.134;4.666;2023-06-01T07:14:22;14.40;;;8.02;;
53036;SDS011;38924;52.134;4.666;2023-06-01T07:16:48;15.70;;;8.15;;
53036;SDS011;38924;52.134;4.666;2023-06-01T07:19:14;15.20;;;8.00;;
53036;SDS011;38924;52.134;4.666;2023-06-01T07:21:39;16.85;;;7.80;;
53036;SDS011;38924;52.134;4.666;2023-06-01T07:24:07;14.77;;;7.90;;
53036;SDS011;38924;52.134;4.666;2023-06-01T07:26:33;12.70;;;7.47;;
53036;SDS011;38924;52.134;4.666;2023-06-01T07:28:59;13.10;;;7.07;;
53036;SDS011;38924;52.134;4.666;2023-06-01T07:31:25;13.82;;;7.05;;
53036;SDS011;38924;52.134;4.666;2023-06-01T07:33:53;12.77;;;7.97;;
53036;SDS011;38924;52.134;4.666;2023-06-01T07:36:21;14.57;;;6.88;;
53036;SDS011;38924;52.134;4.666;2023-06-01T07:38:51;11.30;;;6.53;;
53036;SDS011;38924;52.134;4.666;2023-06-01T07:41:17;14.27;;;6.90;;
53036;SDS011;38924;52.134;4.666;2023-06-01T07:43:42;13.68;;;6.95;;
53036;SDS011;38924;52.134;4.666;2023-06-01T07:46:08;13.23;;;7.28;;
53036;SDS011;38924;52.134;4.666;2023-06-01T07:48:34;8.35;;;5.95;;
53036;SDS011;38924;52.134;4.666;2023-06-01T07:51:03;12.90;;;6.93;;
53036;SDS011;38924;52.134;4.666;2023-06-01T07:53:29;11.75;;;6.05;;
53036;SDS011;38924;52.134;4.666;2023-06-01T07:55:56;10.68;;;6.35;;
53036;SDS011;38924;52.134;4.666;2023-06-01T07:58:21;9.60;;;6.57;;
53036;SDS011;38924;52.134;4.666;2023-06-01T08:00:47;9.52;;;6.15;;
53036;SDS011;38924;52.134;4.666;2023-06-01T08:03:17;12.65;;;6.38;;
53036;SDS011;38924;52.134;4.666;2023-06-01T08:05:42;11.10;;;6.72;;
53036;SDS011;38924;52.134;4.666;2023-06-01T08:08:09;15.68;;;6.22;;
53036;SDS011;38924;52.134;4.666;2023-06-01T08:10:35;10.23;;;6.03;;
53036;SDS011;38924;52.134;4.666;2023-06-01T08:13:03;10.40;;;6.57;;
53036;SDS011;38924;52.134;4.666;2023-06-01T08:15:30;12.13;;;6.90;;
53036;SDS011;38924;52.134;4.666;2023-06-01T08:17:56;10.77;;;7.20;;
53036;SDS011;38924;52.134;4.666;2023-06-01T08:20:22;11.85;;;9.13;;
53036;SDS011;38924;52.134;4.666;2023-06-01T08:22:48;11.57;;;8.18;;
53036;SDS011;38924;52.134;4.666;2023-06-01T08:25:14;16.40;;;9.23;;
53036;SDS011;38924;52.134;4.666;2023-06-01T08:27:40;15.85;;;8.63;;
53036;SDS011;38924;52.134;4.666;2023-06-01T08:30:07;12.88;;;10.45;;
53036;SDS011;38924;52.134;4.666;2023-06-01T08:32:32;11.15;;;9.02;;
53036;SDS011;38924;52.134;4.666;2023-06-01T08:34:58;12.05;;;10.70;;
53036;SDS011;38924;52.134;4.666;2023-06-01T08:37:24;14.45;;;10.20;;
53036;SDS011;38924;52.134;4.666;2023-06-01T08:39:49;12.18;;;10.15;;
53036;SDS011;38924;52.134;4.666;2023-06-01T08:45:03;18.17;;;11.93;;
53036;SDS011;38924;52.134;4.666;2023-06-01T08:47:29;17.98;;;11.13;;
53036;SDS011;38924;52.134;4.666;2023-06-01T08:49:56;12.98;;;10.75;;
53036;SDS011;38924;52.134;4.666;2023-06-01T08:52:24;14.38;;;11.65;;
53036;SDS011;38924;52.134;4.666;2023-06-01T08:54:53;12.30;;;11.10;;
53036;SDS011;38924;52.134;4.666;2023-06-01T08:57:18;12.38;;;9.82;;
53036;SDS011;38924;52.134;4.666;2023-06-01T08:59:46;13.82;;;9.40;;
53036;SDS011;38924;52.134;4.666;2023-06-01T09:02:12;12.32;;;10.85;;
53036;SDS011;38924;52.134;4.666;2023-06-01T09:04:39;13.48;;;8.65;;
53036;SDS011;38924;52.134;4.666;2023-06-01T09:07:07;15.60;;;10.93;;
53036;SDS011;38924;52.134;4.666;2023-06-01T09:09:53;13.35;;;10.10;;
53036;SDS011;38924;52.134;4.666;2023-06-01T09:12:21;11.63;;;10.02;;
53036;SDS011;38924;52.134;4.666;2023-06-01T09:14:49;15.25;;;12.40;;
53036;SDS011;38924;52.134;4.666;2023-06-01T09:17:22;13.85;;;12.27;;
53036;SDS011;38924;52.134;4.666;2023-06-01T09:19:50;11.20;;;9.18;;
53036;SDS011;38924;52.134;4.666;2023-06-01T09:22:15;12.73;;;11.63;;
53036;SDS011;38924;52.134;4.666;2023-06-01T09:24:41;18.27;;;13.27;;
53036;SDS011;38924;52.134;4.666;2023-06-01T09:27:19;15.25;;;13.70;;
53036;SDS011;38924;52.134;4.666;2023-06-01T09:29:52;16.73;;;13.77;;
53036;SDS011;38924;52.134;4.666;2023-06-01T09:32:18;15.65;;;12.40;;
53036;SDS011;38924;52.134;4.666;2023-06-01T09:34:44;11.95;;;10.90;;
53036;SDS011;38924;52.134;4.666;2023-06-01T09:37:13;13.10;;;11.82;;
53036;SDS011;38924;52.134;4.666;2023-06-01T09:39:39;15.38;;;12.32;;
53036;SDS011;38924;52.134;4.666;2023-06-01T09:42:05;13.50;;;12.13;;
53036;SDS011;38924;52.134;4.666;2023-06-01T09:44:33;14.35;;;12.65;;
53036;SDS011;38924;52.134;4.666;2023-06-01T09:47:00;13.02;;;11.82;;
53036;SDS011;38924;52.134;4.666;2023-06-01T09:49:30;14.20;;;12.32;;
53036;SDS011;38924;52.134;4.666;2023-06-01T09:54:31;15.55;;;11.88;;
53036;SDS011;38924;52.134;4.666;2023-06-01T09:56:57;12.55;;;11.32;;
53036;SDS011;38924;52.134;4.666;2023-06-01T09:59:24;15.65;;;11.98;;
53036;SDS011;38924;52.134;4.666;2023-06-01T10:01:53;16.92;;;11.75;;
53036;SDS011;38924;52.134;4.666;2023-06-01T10:04:20;14.07;;;12.70;;
53036;SDS011;38924;52.134;4.666;2023-06-01T10:06:46;19.60;;;12.30;;
53036;SDS011;38924;52.134;4.666;2023-06-01T10:09:15;12.77;;;11.60;;
53036;SDS011;38924;52.134;4.666;2023-06-01T10:11:43;11.95;;;10.80;;
53036;SDS011;38924;52.134;4.666;2023-06-01T10:14:09;14.85;;;12.60;;
53036;SDS011;38924;52.134;4.666;2023-06-01T10:16:35;12.45;;;11.45;;
53036;SDS011;38924;52.134;4.666;2023-06-01T10:19:01;12.75;;;11.63;;
53036;SDS011;38924;52.134;4.666;2023-06-01T10:21:28;13.52;;;12.13;;
53036;SDS011;38924;52.134;4.666;2023-06-01T10:23:57;15.27;;;13.85;;
53036;SDS011;38924;52.134;4.666;2023-06-01T10:26:22;19.42;;;13.50;;
53036;SDS011;38924;52.134;4.666;2023-06-01T10:28:49;14.18;;;11.45;;
53036;SDS011;38924;52.134;4.666;2023-06-01T10:34:00;16.67;;;10.77;;
53036;SDS011;38924;52.134;4.666;2023-06-01T10:39:23;13.18;;;11.45;;
53036;SDS011;38924;52.134;4.666;2023-06-01T10:41:53;12.88;;;11.30;;
53036;SDS011;38924;52.134;4.666;2023-06-01T10:47:03;14.20;;;12.70;;
53036;SDS011;38924;52.134;4.666;2023-06-01T10:54:53;12.23;;;10.23;;
53036;SDS011;38924;52.134;4.666;2023-06-01T10:57:22;14.70;;;13.20;;
53036;SDS011;38924;52.134;4.666;2023-06-01T11:02:33;13.93;;;11.30;;
53036;SDS011;38924;52.134;4.666;2023-06-01T11:10:09;14.32;;;12.90;;
53036;SDS011;38924;52.134;4.666;2023-06-01T11:13:10;13.93;;;10.27;;
53036;SDS011;38924;52.134;4.666;2023-06-01T11:15:26;12.48;;;11.23;;
53036;SDS011;38924;52.134;4.666;2023-06-01T11:17:52;12.90;;;11.77;;
53036;SDS011;38924;52.134;4.666;2023-06-01T11:20:18;12.95;;;11.68;;
53036;SDS011;38924;52.134;4.666;2023-06-01T11:22:54;17.40;;;12.50;;
53036;SDS011;38924;52.134;4.666;2023-06-01T11:25:20;12.82;;;11.45;;
53036;SDS011;38924;52.134;4.666;2023-06-01T11:27:46;13.90;;;12.48;;
53036;SDS011;38924;52.134;4.666;2023-06-01T11:30:17;11.32;;;10.30;;
53036;SDS011;38924;52.134;4.666;2023-06-01T11:32:43;13.50;;;12.15;;
53036;SDS011;38924;52.134;4.666;2023-06-01T11:35:16;14.50;;;12.95;;
53036;SDS011;38924;52.134;4.666;2023-06-01T11:37:43;16.20;;;13.10;;
53036;SDS011;38924;52.134;4.666;2023-06-01T11:40:11;13.77;;;12.45;;
53036;SDS011;38924;52.134;4.666;2023-06-01T11:42:37;21.27;;;13.27;;
53036;SDS011;38924;52.134;4.666;2023-06-01T11:45:03;17.05;;;14.38;;
53036;SDS011;38924;52.134;4.666;2023-06-01T11:47:30;13.48;;;12.02;;
53036;SDS011;38924;52.134;4.666;2023-06-01T11:49:56;14.05;;;12.75;;
53036;SDS011;38924;52.134;4.666;2023-06-01T11:52:22;12.60;;;11.00;;
53036;SDS011;38924;52.134;4.666;2023-06-01T11:54:48;16.63;;;12.68;;
53036;SDS011;38924;52.134;4.666;2023-06-01T11:57:13;15.00;;;13.50;;
53036;SDS011;38924;52.134;4.666;2023-06-01T11:59:44;12.40;;;11.20;;
53036;SDS011;38924;52.134;4.666;2023-06-01T12:02:17;17.77;;;13.35;;
53036;SDS011;38924;52.134;4.666;2023-06-01T12:04:53;15.07;;;13.20;;
53036;SDS011;38924;52.134;4.666;2023-06-01T12:07:19;16.98;;;12.07;;
53036;SDS011;38924;52.134;4.666;2023-06-01T12:09:45;18.00;;;11.15;;
53036;SDS011;38924;52.134;4.666;2023-06-01T12:12:10;13.93;;;12.43;;
53036;SDS011;38924;52.134;4.666;2023-06-01T12:14:37;18.38;;;11.93;;
53036;SDS011;38924;52.134;4.666;2023-06-01T12:17:02;12.88;;;11.63;;
53036;SDS011;38924;52.134;4.666;2023-06-01T12:19:30;13.55;;;12.25;;
53036;SDS011;38924;52.134;4.666;2023-06-01T12:22:00;17.63;;;12.40;;
53036;SDS011;38924;52.134;4.666;2023-06-01T12:24:32;12.23;;;11.27;;
53036;SDS011;38924;52.134;4.666;2023-06-01T12:26:58;12.77;;;10.30;;
53036;SDS011;38924;52.134;4.666;2023-06-01T12:29:34;14.10;;;11.18;;
53036;SDS011;38924;52.134;4.666;2023-06-01T12:31:59;10.60;;;9.65;;
53036;SDS011;38924;52.134;4.666;2023-06-01T12:34:25;17.67;;;12.00;;
53036;SDS011;38924;52.134;4.666;2023-06-01T12:36:51;13.48;;;11.65;;
53036;SDS011;38924;52.134;4.666;2023-06-01T12:39:24;12.68;;;11.40;;
53036;SDS011;38924;52.134;4.666;2023-06-01T12:41:57;15.05;;;13.75;;
53036;SDS011;38924;52.134;4.666;2023-06-01T12:44:23;11.25;;;10.25;;
53036;SDS011;38924;52.134;4.666;2023-06-01T12:46:55;10.68;;;9.68;;
53036;SDS011;38924;52.134;4.666;2023-06-01T12:49:21;11.00;;;10.18;;
53036;SDS011;38924;52.134;4.666;2023-06-01T12:51:46;14.27;;;11.15;;
53036;SDS011;38924;52.134;4.666;2023-06-01T12:54:12;13.38;;;12.02;;
53036;SDS011;38924;52.134;4.666;2023-06-01T12:56:38;13.27;;;12.13;;
53036;SDS011;38924;52.134;4.666;2023-06-01T12:59:03;10.75;;;10.00;;
53036;SDS011;38924;52.134;4.666;2023-06-01T13:01:29;12.07;;;11.02;;
53036;SDS011;38924;52.134;4.666;2023-06-01T13:03:58;10.43;;;9.63;;
53036;SDS011;38924;52.134;4.666;2023-06-01T13:06:23;11.20;;;10.27;;
53036;SDS011;38924;52.134;4.666;2023-06-01T13:08:49;12.15;;;11.15;;
53036;SDS011;38924;52.134;4.666;2023-06-01T13:11:15;14.43;;;10.85;;
53036;SDS011;38924;52.134;4.666;2023-06-01T13:13:41;11.85;;;10.65;;
53036;SDS011;38924;52.134;4.666;2023-06-01T13:16:06;12.20;;;10.00;;
53036;SDS011;38924;52.134;4.666;2023-06-01T13:18:33;13.00;;;10.48;;
53036;SDS011;38924;52.134;4.666;2023-06-01T13:20:58;12.13;;;11.02;;
53036;SDS011;38924;52.134;4.666;2023-06-01T13:23:24;11.23;;;10.30;;
53036;SDS011;38924;52.134;4.666;2023-06-01T13:25:50;10.02;;;9.25;;
53036;SDS011;38924;52.134;4.666;2023-06-01T13:28:15;10.80;;;9.95;;
53036;SDS011;38924;52.134;4.666;2023-06-01T13:30:41;12.05;;;10.95;;
53036;SDS011;38924;52.134;4.666;2023-06-01T13:33:07;8.18;;;7.57;;
53036;SDS011;38924;52.134;4.666;2023-06-01T13:35:33;8.27;;;7.68;;
53036;SDS011;38924;52.134;4.666;2023-06-01T13:37:59;6.03;;;5.53;;
53036;SDS011;38924;52.134;4.666;2023-06-01T13:40:25;9.48;;;7.65;;
53036;SDS011;38924;52.134;4.666;2023-06-01T13:42:51;5.15;;;4.22;;
53036;SDS011;38924;52.134;4.666;2023-06-01T13:45:17;6.20;;;5.65;;
53036;SDS011;38924;52.134;4.666;2023-06-01T13:47:43;4.95;;;4.45;;
53036;SDS011;38924;52.134;4.666;2023-06-01T13:50:09;4.93;;;4.55;;
53036;SDS011;38924;52.134;4.666;2023-06-01T13:52:38;5.28;;;4.78;;
53036;SDS011;38924;52.134;4.666;2023-06-01T13:55:03;7.55;;;4.25;;
53036;SDS011;38924;52.134;4.666;2023-06-01T13:57:29;9.63;;;4.85;;
53036;SDS011;38924;52.134;4.666;2023-06-01T13:59:55;9.43;;;4.50;;
53036;SDS011;38924;52.134;4.666;2023-06-01T14:02:21;13.70;;;5.35;;
53036;SDS011;38924;52.134;4.666;2023-06-01T14:04:47;5.50;;;4.30;;
53036;SDS011;38924;52.134;4.666;2023-06-01T14:07:15;6.25;;;5.63;;
53036;SDS011;38924;52.134;4.666;2023-06-01T14:09:41;7.50;;;6.15;;
53036;SDS011;38924;52.134;4.666;2023-06-01T14:12:07;13.57;;;5.63;;
53036;SDS011;38924;52.134;4.666;2023-06-01T14:14:33;6.60;;;5.85;;
53036;SDS011;38924;52.134;4.666;2023-06-01T14:16:59;15.95;;;6.15;;
53036;SDS011;38924;52.134;4.666;2023-06-01T14:19:24;8.40;;;5.82;;
53036;SDS011;38924;52.134;4.666;2023-06-01T14:21:52;13.35;;;6.90;;
53036;SDS011;38924;52.134;4.666;2023-06-01T14:24:18;8.93;;;6.13;;
53036;SDS011;38924;52.134;4.666;2023-06-01T14:26:43;10.20;;;6.20;;
53036;SDS011;38924;52.134;4.666;2023-06-01T14:29:10;11.57;;;6.47;;
53036;SDS011;38924;52.134;4.666;2023-06-01T14:31:35;10.43;;;5.80;;
53036;SDS011;38924;52.134;4.666;2023-06-01T14:34:01;14.05;;;5.45;;
53036;SDS011;38924;52.134;4.666;2023-06-01T14:36:26;16.90;;;7.20;;
53036;SDS011;38924;52.134;4.666;2023-06-01T14:38:52;9.88;;;5.25;;
53036;SDS011;38924;52.134;4.666;2023-06-01T14:41:18;8.82;;;5.13;;
53036;SDS011;38924;52.134;4.666;2023-06-01T14:43:43;10.52;;;4.95;;
53036;SDS011;38924;52.134;4.666;2023-06-01T14:46:09;12.23;;;4.68;;
53036;SDS011;38924;52.134;4.666;2023-06-01T14:48:35;8.35;;;5.22;;
53036;SDS011;38924;52.134;4.666;2023-06-01T14:51:00;12.25;;;4.82;;
53036;SDS011;38924;52.134;4.666;2023-06-01T14:53:26;8.05;;;5.30;;
53036;SDS011;38924;52.134;4.666;2023-06-01T14:55:51;7.13;;;4.55;;
53036;SDS011;38924;52.134;4.666;2023-06-01T14:58:17;7.78;;;5.07;;
53036;SDS011;38924;52.134;4.666;2023-06-01T15:00:43;9.48;;;5.65;;
53036;SDS011;38924;52.134;4.666;2023-06-01T15:03:08;9.02;;;5.35;;
53036;SDS011;38924;52.134;4.666;2023-06-01T15:05:34;9.43;;;5.15;;